Time;durP1;ratioP1;P1;durP2;ratioP2;P2;SDS_P1;SDS_P2;PMS_P1;PMS_P2;Temp;Humidity;BMP_temperature;BMP_pressure;BME280_temperature;BME280_humidity;BME280_pressure;Samples;Min_cycle;Max_cycle;Signal;HPM_P1;HPM_P2
2024/01/31 00:00:23;;;;;;;3.03;0.80;;;20.40;39.70;;;;;;5116035;28;20032;-58
2024/01/31 00:02:48;;;;;;;2.50;0.75;;;20.40;39.70;;;;;;5116072;28;20031;-59
2024/01/31 00:05:14;;;;;;;1.58;0.70;;;20.40;39.70;;;;;;5097984;28;20023;-56
2024/01/31 00:07:43;;;;;;;1.52;0.63;;;20.40;39.70;;;;;;5115179;28;20109;-53
2024/01/31 00:10:09;;;;;;;2.47;0.60;;;20.30;39.60;;;;;;5114854;28;20098;-56
2024/01/31 00:12:35;;;;;;;2.13;0.80;;;20.40;39.70;;;;;;5115703;28;20152;-58
2024/01/31 00:15:01;;;;;;;1.90;0.75;;;20.40;39.60;;;;;;5115805;28;20195;-58
2024/01/31 00:17:27;;;;;;;2.70;0.68;;;20.40;39.60;;;;;;5097202;28;20093;-57
2024/01/31 00:19:52;;;;;;;1.67;0.73;;;20.30;39.50;;;;;;5115327;28;20077;-58
2024/01/31 00:22:18;;;;;;;2.30;0.70;;;20.30;39.50;;;;;;5115683;28;20031;-57
2024/01/31 00:24:44;;;;;;;0.82;0.38;;;20.30;39.50;;;;;;5097725;28;20027;-57
2024/01/31 00:27:10;;;;;;;1.40;0.50;;;20.30;39.40;;;;;;5115619;28;20023;-56
2024/01/31 00:29:36;;;;;;;2.28;0.80;;;20.30;39.40;;;;;;5115542;28;20038;-55
2024/01/31 00:32:02;;;;;;;1.58;0.50;;;20.30;39.40;;;;;;5115210;28;20099;-57
2024/01/31 00:34:29;;;;;;;1.63;0.55;;;20.30;39.40;;;;;;5115945;28;20158;-56
2024/01/31 00:36:55;;;;;;;1.35;0.40;;;20.30;39.40;;;;;;5115771;28;20047;-56
2024/01/31 00:39:20;;;;;;;0.95;0.40;;;20.30;39.40;;;;;;5116428;28;20447;-58
2024/01/31 00:41:47;;;;;;;1.13;0.50;;;20.30;39.30;;;;;;5115557;28;20446;-52
2024/01/31 00:44:13;;;;;;;2.90;0.75;;;20.30;39.30;;;;;;5114966;28;20105;-58
2024/01/31 00:46:44;;;;;;;1.60;0.68;;;20.30;39.30;;;;;;5115249;28;20042;-55
2024/01/31 00:49:10;;;;;;;0.85;0.57;;;20.30;39.30;;;;;;5115723;28;20096;-54
2024/01/31 00:51:36;;;;;;;1.42;0.52;;;20.30;39.30;;;;;;5115552;28;20027;-57
2024/01/31 00:54:02;;;;;;;1.40;0.70;;;20.30;39.20;;;;;;5113649;28;20046;-55
2024/01/31 00:56:27;;;;;;;1.38;0.40;;;20.30;39.20;;;;;;5114855;28;20027;-56
2024/01/31 00:58:53;;;;;;;1.80;0.50;;;20.20;39.10;;;;;;5114606;28;20020;-58
2024/01/31 01:01:19;;;;;;;1.38;0.40;;;20.20;39.10;;;;;;5115649;28;20055;-56
2024/01/31 01:03:45;;;;;;;1.55;0.40;;;20.30;39.20;;;;;;5115228;28;20039;-57
2024/01/31 01:06:10;;;;;;;1.42;0.45;;;20.20;39.10;;;;;;5115140;28;20042;-57
2024/01/31 01:08:36;;;;;;;1.02;0.47;;;20.20;39.10;;;;;;5113734;28;20409;-56
2024/01/31 01:11:02;;;;;;;1.77;0.55;;;20.30;39.10;;;;;;5112296;28;20164;-57
2024/01/31 01:13:28;;;;;;;0.80;0.50;;;20.20;39.10;;;;;;5114221;28;20031;-58
2024/01/31 01:15:53;;;;;;;1.45;0.43;;;20.20;39.00;;;;;;5114989;28;20032;-54
2024/01/31 01:18:19;;;;;;;1.20;0.45;;;20.20;39.00;;;;;;5113193;28;20023;-57
2024/01/31 01:20:45;;;;;;;1.55;0.40;;;20.20;39.00;;;;;;5115019;28;20435;-58
2024/01/31 01:23:13;;;;;;;1.45;0.40;;;20.20;39.00;;;;;;5096146;28;20024;-56
2024/01/31 01:25:39;;;;;;;1.33;0.60;;;20.20;38.90;;;;;;5114923;28;20054;-57
2024/01/31 01:28:05;;;;;;;1.17;0.43;;;20.20;38.90;;;;;;5114143;28;20104;-57
2024/01/31 01:30:31;;;;;;;1.02;0.30;;;20.20;38.90;;;;;;5114341;28;20061;-56
2024/01/31 01:32:57;;;;;;;1.20;0.40;;;20.20;38.90;;;;;;5113900;28;20031;-56
2024/01/31 01:35:22;;;;;;;1.17;0.45;;;20.20;38.90;;;;;;5114161;28;20020;-59
2024/01/31 01:37:48;;;;;;;1.38;0.50;;;20.20;38.90;;;;;;5114237;28;20027;-57
2024/01/31 01:40:16;;;;;;;1.25;0.50;;;20.10;38.80;;;;;;5113805;28;20023;-58
2024/01/31 01:42:42;;;;;;;1.58;0.38;;;20.10;38.80;;;;;;5096172;28;20051;-56
2024/01/31 01:45:08;;;;;;;1.67;0.60;;;20.20;38.90;;;;;;5114366;28;20090;-57
2024/01/31 01:47:40;;;;;;;0.93;0.40;;;20.20;38.80;;;;;;5114399;28;20035;-57
2024/01/31 01:50:08;;;;;;;1.13;0.30;;;20.10;38.70;;;;;;5112070;28;20038;-55
2024/01/31 01:52:34;;;;;;;1.38;0.45;;;20.10;38.70;;;;;;5096282;28;20046;-55
2024/01/31 01:55:04;;;;;;;0.82;0.30;;;20.10;38.70;;;;;;5113836;28;20069;-56
2024/01/31 01:57:33;;;;;;;1.10;0.43;;;20.10;38.70;;;;;;5094603;28;20043;-57
2024/01/31 02:00:00;;;;;;;0.70;0.40;;;20.10;38.70;;;;;;5113085;28;20096;-58
2024/01/31 02:02:27;;;;;;;1.15;0.40;;;20.10;38.70;;;;;;5113907;28;20539;-53
2024/01/31 02:04:54;;;;;;;0.60;0.30;;;20.10;38.70;;;;;;5113353;28;20023;-56
2024/01/31 02:07:24;;;;;;;1.08;0.40;;;20.10;38.60;;;;;;5094306;28;20031;-56
2024/01/31 02:09:53;;;;;;;0.80;0.40;;;20.10;38.70;;;;;;5112709;28;20444;-55
2024/01/31 02:12:19;;;;;;;1.15;0.60;;;20.10;38.60;;;;;;5112993;28;20036;-52
2024/01/31 02:14:47;;;;;;;0.88;0.30;;;20.10;38.60;;;;;;5113921;28;20024;-57
2024/01/31 02:17:13;;;;;;;0.68;0.40;;;20.10;38.60;;;;;;5112978;28;20180;-58
2024/01/31 02:19:39;;;;;;;2.03;0.50;;;20.10;38.60;;;;;;5113447;28;20023;-57
2024/01/31 02:22:07;;;;;;;1.10;0.40;;;20.10;38.60;;;;;;5095440;28;20032;-57
2024/01/31 02:24:33;;;;;;;0.60;0.22;;;20.10;38.60;;;;;;5113656;28;20030;-56
2024/01/31 02:26:58;;;;;;;1.70;0.50;;;20.10;38.60;;;;;;5112948;28;20031;-56
2024/01/31 02:29:24;;;;;;;1.02;0.40;;;20.10;38.50;;;;;;5113459;28;20024;-57
2024/01/31 02:31:50;;;;;;;0.80;0.38;;;20.10;38.60;;;;;;5112333;28;20442;-55
2024/01/31 02:34:16;;;;;;;0.52;0.40;;;20.10;38.60;;;;;;5113282;28;20043;-56
2024/01/31 02:36:41;;;;;;;0.60;0.30;;;20.10;38.50;;;;;;5113405;28;20024;-53
2024/01/31 02:39:07;;;;;;;1.13;0.57;;;20.10;38.50;;;;;;5113099;28;20019;-56
2024/01/31 02:41:33;;;;;;;1.25;0.50;;;20.10;38.60;;;;;;5095490;28;20088;-55
2024/01/31 02:43:59;;;;;;;0.40;0.30;;;20.10;38.60;;;;;;5113709;28;20493;-57
2024/01/31 02:46:25;;;;;;;1.13;0.40;;;20.00;38.50;;;;;;5112207;28;20073;-59
2024/01/31 02:48:51;;;;;;;1.33;0.65;;;20.10;38.60;;;;;;5112923;28;20035;-58
2024/01/31 02:51:16;;;;;;;0.55;0.32;;;20.10;38.60;;;;;;5113735;28;20020;-56
2024/01/31 02:53:42;;;;;;;1.17;0.40;;;20.00;38.50;;;;;;5113273;28;20096;-57
2024/01/31 02:56:11;;;;;;;1.02;0.47;;;20.00;38.60;;;;;;5113529;28;20069;-54
2024/01/31 02:58:37;;;;;;;1.50;0.60;;;20.00;38.60;;;;;;5112651;28;20073;-57
2024/01/31 03:01:06;;;;;;;1.17;0.40;;;20.00;38.60;;;;;;5113033;28;20024;-58
2024/01/31 03:03:32;;;;;;;1.00;0.30;;;20.00;38.60;;;;;;5113316;28;20023;-54
2024/01/31 03:05:58;;;;;;;1.13;0.47;;;20.00;38.60;;;;;;5113379;28;20031;-58
2024/01/31 03:08:24;;;;;;;1.17;0.30;;;20.00;38.60;;;;;;5112754;28;20030;-57
2024/01/31 03:10:49;;;;;;;1.27;0.50;;;20.00;38.60;;;;;;5113262;28;20023;-55
2024/01/31 03:13:15;;;;;;;1.70;0.70;;;20.00;38.60;;;;;;5112558;28;20431;-55
2024/01/31 03:15:41;;;;;;;1.10;0.50;;;20.00;38.60;;;;;;5113237;28;20430;-57
2024/01/31 03:18:07;;;;;;;1.15;0.52;;;20.00;38.60;;;;;;5113582;28;20024;-54
2024/01/31 03:20:36;;;;;;;1.38;0.50;;;20.00;38.60;;;;;;5117499;28;20132;-55
2024/01/31 03:23:02;;;;;;;0.55;0.30;;;20.00;38.60;;;;;;5116538;28;20030;-57
2024/01/31 03:25:28;;;;;;;0.73;0.30;;;20.00;38.60;;;;;;5116900;28;20024;-55
2024/01/31 03:27:53;;;;;;;0.95;0.30;;;20.00;38.60;;;;;;5116155;28;20020;-56
2024/01/31 03:30:19;;;;;;;1.80;0.43;;;19.90;38.60;;;;;;5116653;28;20043;-57
2024/01/31 03:32:46;;;;;;;1.85;0.50;;;20.00;38.60;;;;;;5116749;28;20118;-54
2024/01/31 03:35:12;;;;;;;0.93;0.40;;;19.90;38.50;;;;;;5116077;28;20020;-53
2024/01/31 03:37:37;;;;;;;1.48;0.40;;;20.00;38.60;;;;;;5116512;28;20077;-56
2024/01/31 03:40:08;;;;;;;1.30;0.55;;;19.90;38.50;;;;;;5116085;28;20028;-56
2024/01/31 03:42:34;;;;;;;1.17;0.40;;;20.00;38.60;;;;;;5115562;28;20051;-57
2024/01/31 03:45:00;;;;;;;0.73;0.38;;;19.90;38.60;;;;;;5098567;28;20020;-52
2024/01/31 03:47:27;;;;;;;1.55;0.50;;;19.90;38.60;;;;;;5116042;28;20082;-57
2024/01/31 03:49:54;;;;;;;1.05;0.35;;;20.00;38.60;;;;;;5115762;28;20055;-56
2024/01/31 03:52:19;;;;;;;2.05;0.40;;;20.00;38.60;;;;;;5116525;28;20031;-58
2024/01/31 03:54:45;;;;;;;1.60;0.60;;;19.90;38.60;;;;;;5116205;28;20032;-56
2024/01/31 03:57:11;;;;;;;2.20;0.55;;;19.90;38.60;;;;;;5115598;28;20072;-56
2024/01/31 03:59:37;;;;;;;1.40;0.47;;;19.90;38.60;;;;;;5114504;28;20069;-51
2024/01/31 04:02:03;;;;;;;1.90;0.60;;;19.90;38.60;;;;;;5116042;28;20028;-55
2024/01/31 04:04:29;;;;;;;1.60;0.47;;;19.90;38.60;;;;;;5115713;28;20106;-55
2024/01/31 04:06:54;;;;;;;0.77;0.30;;;19.90;38.70;;;;;;5115995;28;20058;-55
2024/01/31 04:09:20;;;;;;;1.08;0.38;;;19.90;38.60;;;;;;5115798;28;20502;-56
2024/01/31 04:11:46;;;;;;;0.60;0.40;;;19.90;38.60;;;;;;5115217;28;20019;-57
2024/01/31 04:14:12;;;;;;;0.90;0.40;;;19.90;38.60;;;;;;5115047;28;20073;-55
2024/01/31 04:16:38;;;;;;;1.23;0.40;;;19.90;38.60;;;;;;5115754;28;20496;-57
2024/01/31 04:19:03;;;;;;;1.77;0.60;;;19.90;38.60;;;;;;5115664;28;20020;-55
2024/01/31 04:21:29;;;;;;;1.30;0.38;;;19.90;38.60;;;;;;5116141;28;20024;-57
2024/01/31 04:23:55;;;;;;;0.90;0.40;;;19.90;38.60;;;;;;5115426;28;20049;-56
2024/01/31 04:26:21;;;;;;;1.92;0.50;;;19.80;38.60;;;;;;5114729;28;20027;-56
2024/01/31 04:28:46;;;;;;;1.60;0.35;;;19.90;38.60;;;;;;5115289;28;20102;-56
2024/01/31 04:31:14;;;;;;;1.58;0.45;;;19.90;38.60;;;;;;5115368;28;20035;-52
2024/01/31 04:33:40;;;;;;;0.75;0.43;;;19.90;38.60;;;;;;5115272;28;20043;-56
2024/01/31 04:36:07;;;;;;;1.45;0.40;;;19.90;38.60;;;;;;5097353;28;20020;-56
2024/01/31 04:38:33;;;;;;;1.48;0.50;;;19.90;38.60;;;;;;5114800;28;20362;-57
2024/01/31 04:40:59;;;;;;;1.52;0.63;;;19.90;38.60;;;;;;5115323;28;20027;-56
2024/01/31 04:43:25;;;;;;;1.30;0.50;;;19.80;38.60;;;;;;5115263;28;20048;-53
2024/01/31 04:45:50;;;;;;;0.95;0.52;;;19.80;38.60;;;;;;5114810;28;20019;-57
2024/01/31 04:48:16;;;;;;;1.08;0.40;;;19.80;38.60;;;;;;5114711;28;20112;-57
2024/01/31 04:50:43;;;;;;;2.15;0.40;;;19.80;38.60;;;;;;5115189;28;20027;-56
2024/01/31 04:53:08;;;;;;;1.42;0.40;;;19.90;38.60;;;;;;5115048;28;20035;-57
2024/01/31 04:55:34;;;;;;;1.38;0.32;;;19.80;38.60;;;;;;5114791;28;20038;-58
2024/01/31 04:58:00;;;;;;;1.15;0.40;;;19.90;38.60;;;;;;5113954;28;20119;-56
2024/01/31 05:00:26;;;;;;;1.38;0.40;;;19.80;38.60;;;;;;5115108;28;20358;-55
2024/01/31 05:02:52;;;;;;;1.15;0.57;;;19.80;38.50;;;;;;5114642;28;20035;-57
2024/01/31 05:05:19;;;;;;;0.80;0.38;;;19.80;38.60;;;;;;5115161;28;20088;-54
2024/01/31 05:07:45;;;;;;;1.00;0.40;;;19.80;38.60;;;;;;5114414;28;20028;-53
2024/01/31 05:10:12;;;;;;;1.27;0.40;;;19.80;38.60;;;;;;5114861;28;20061;-54
2024/01/31 05:12:37;;;;;;;1.27;0.40;;;19.80;38.60;;;;;;5114077;28;20047;-55
2024/01/31 05:15:05;;;;;;;1.15;0.40;;;19.80;38.60;;;;;;5114393;28;20042;-54
2024/01/31 05:17:31;;;;;;;0.50;0.30;;;19.80;38.60;;;;;;5114562;28;20075;-57
2024/01/31 05:19:56;;;;;;;1.20;0.43;;;19.80;38.50;;;;;;5114201;28;20438;-57
2024/01/31 05:22:22;;;;;;;1.10;0.30;;;19.80;38.60;;;;;;5114688;28;20089;-59
2024/01/31 05:24:48;;;;;;;1.33;0.40;;;19.80;38.50;;;;;;5114843;28;20445;-56
2024/01/31 05:27:14;;;;;;;1.27;0.45;;;19.80;38.60;;;;;;5114745;28;20032;-57
2024/01/31 05:29:40;;;;;;;1.00;0.40;;;19.80;38.60;;;;;;5113788;28;20031;-57
2024/01/31 05:32:06;;;;;;;0.68;0.30;;;19.80;38.50;;;;;;5114616;28;20030;-56
2024/01/31 05:34:31;;;;;;;0.50;0.40;;;19.80;38.50;;;;;;5095677;28;20104;-56
2024/01/31 05:36:57;;;;;;;0.55;0.30;;;19.80;38.50;;;;;;5114565;28;20028;-56
2024/01/31 05:39:23;;;;;;;1.25;0.40;;;19.80;38.50;;;;;;5114330;28;20020;-56
2024/01/31 05:41:49;;;;;;;1.38;0.40;;;19.80;38.50;;;;;;5113386;28;20030;-55
2024/01/31 05:44:15;;;;;;;0.70;0.30;;;19.80;38.50;;;;;;5113368;28;20363;-56
2024/01/31 05:46:40;;;;;;;0.95;0.50;;;19.80;38.50;;;;;;5114039;28;20034;-57
2024/01/31 05:49:06;;;;;;;0.80;0.35;;;19.80;38.50;;;;;;5113606;28;20027;-57
2024/01/31 05:51:32;;;;;;;1.58;0.50;;;19.80;38.50;;;;;;5095579;28;20023;-55
2024/01/31 05:53:58;;;;;;;1.10;0.35;;;19.70;38.40;;;;;;5113650;28;20413;-55
2024/01/31 05:56:23;;;;;;;1.30;0.30;;;19.70;38.40;;;;;;5113525;28;20012;-57
2024/01/31 05:58:49;;;;;;;0.63;0.32;;;19.70;38.40;;;;;;5095843;28;20032;-57
2024/01/31 06:01:15;;;;;;;1.27;0.30;;;19.70;38.40;;;;;;5112537;28;20034;-55
2024/01/31 06:03:41;;;;;;;1.15;0.50;;;19.80;38.40;;;;;;5113327;28;20362;-57
2024/01/31 06:06:07;;;;;;;0.57;0.35;;;19.70;38.40;;;;;;5113100;28;20020;-56
2024/01/31 06:08:33;;;;;;;0.90;0.20;;;19.70;38.40;;;;;;5113995;28;20023;-57
2024/01/31 06:11:08;;;;;;;1.15;0.40;;;19.70;38.40;;;;;;5113209;28;20035;-57
2024/01/31 06:13:38;;;;;;;0.80;0.35;;;19.70;38.40;;;;;;5095404;28;20039;-54
2024/01/31 06:16:04;;;;;;;1.17;0.38;;;19.70;38.40;;;;;;5094306;28;20099;-55
2024/01/31 06:18:34;;;;;;;0.90;0.40;;;19.70;38.40;;;;;;5112923;28;20024;-54
2024/01/31 06:21:02;;;;;;;0.73;0.40;;;19.70;38.50;;;;;;5113195;28;20023;-57
2024/01/31 06:23:28;;;;;;;2.42;0.73;;;19.70;38.40;;;;;;5112666;28;20023;-56
2024/01/31 06:25:54;;;;;;;0.60;0.20;;;19.70;38.40;;;;;;5112729;28;20027;-53
2024/01/31 06:28:20;;;;;;;1.10;0.50;;;19.70;38.40;;;;;;5112639;28;20031;-53
2024/01/31 06:30:48;;;;;;;1.50;0.30;;;19.70;38.40;;;;;;5113198;28;20327;-55
2024/01/31 06:33:17;;;;;;;0.68;0.32;;;19.70;38.30;;;;;;5113074;28;20035;-55
2024/01/31 06:35:43;;;;;;;0.63;0.30;;;19.70;38.30;;;;;;5112951;28;20176;-55
2024/01/31 06:38:09;;;;;;;0.47;0.20;;;19.70;38.30;;;;;;5094561;28;20027;-57
2024/01/31 06:40:35;;;;;;;1.27;0.20;;;19.70;38.30;;;;;;5112443;28;20024;-57
2024/01/31 06:43:00;;;;;;;0.82;0.40;;;19.70;38.30;;;;;;5112594;28;20359;-55
2024/01/31 06:45:27;;;;;;;1.23;0.38;;;19.70;38.80;;;;;;5113413;28;20034;-56
2024/01/31 06:47:53;;;;;;;1.60;0.40;;;19.70;38.20;;;;;;5112792;28;20028;-53
2024/01/31 06:50:20;;;;;;;1.20;0.35;;;19.70;38.10;;;;;;5112725;28;20042;-57
2024/01/31 06:52:46;;;;;;;1.70;0.40;;;19.70;38.10;;;;;;5115354;28;20142;-58
2024/01/31 06:55:15;;;;;;;0.65;0.30;;;19.70;38.10;;;;;;5116729;28;20030;-54
2024/01/31 06:57:42;;;;;;;0.88;0.20;;;19.70;38.10;;;;;;5116687;28;20015;-55
2024/01/31 07:00:11;;;;;;;1.42;0.38;;;19.70;38.10;;;;;;5116818;28;20437;-52
2024/01/31 07:02:38;;;;;;;0.82;0.40;;;19.70;38.00;;;;;;5116841;28;20127;-56
2024/01/31 07:05:04;;;;;;;0.38;0.28;;;19.70;38.00;;;;;;5116658;28;20497;-55
2024/01/31 07:07:31;;;;;;;0.60;0.22;;;19.70;38.00;;;;;;5115782;28;20023;-54
2024/01/31 07:09:56;;;;;;;0.20;0.20;;;19.70;37.90;;;;;;5098490;28;20038;-57
2024/01/31 07:12:22;;;;;;;0.47;0.30;;;19.60;37.80;;;;;;5116011;28;20020;-58
2024/01/31 07:14:48;;;;;;;0.47;0.30;;;19.70;37.80;;;;;;5115954;28;20043;-59
2024/01/31 07:17:14;;;;;;;0.57;0.28;;;19.70;37.80;;;;;;5116049;28;20019;-57
2024/01/31 07:19:43;;;;;;;0.55;0.30;;;19.60;37.70;;;;;;5116603;28;20035;-54
2024/01/31 07:22:09;;;;;;;1.23;0.40;;;19.60;37.70;;;;;;5116223;28;20449;-57
2024/01/31 07:24:35;;;;;;;1.15;0.30;;;19.60;37.60;;;;;;5116105;28;20046;-57
2024/01/31 07:27:02;;;;;;;1.13;0.40;;;19.60;37.60;;;;;;5115317;28;20017;-58
2024/01/31 07:29:28;;;;;;;0.50;0.30;;;19.60;37.60;;;;;;5095603;28;20031;-56
2024/01/31 07:31:54;;;;;;;0.70;0.30;;;19.60;37.60;;;;;;5115813;28;20110;-56
2024/01/31 07:34:19;;;;;;;1.15;0.50;;;19.60;37.60;;;;;;5115662;28;20126;-56
2024/01/31 07:36:45;;;;;;;1.10;0.40;;;19.60;37.60;;;;;;5116123;28;20020;-55
2024/01/31 07:39:11;;;;;;;1.23;0.30;;;19.60;37.60;;;;;;5097575;28;20023;-55
2024/01/31 07:41:37;;;;;;;1.15;0.30;;;19.60;37.60;;;;;;5115690;28;20509;-58
2024/01/31 07:44:03;;;;;;;1.10;0.50;;;19.60;37.60;;;;;;5115515;28;20130;-56
2024/01/31 07:46:30;;;;;;;1.85;0.80;;;19.60;37.60;;;;;;5113923;28;20065;-57
2024/01/31 07:48:55;;;;;;;1.00;0.68;;;19.60;37.60;;;;;;5115029;28;20024;-57
2024/01/31 07:51:21;;;;;;;1.58;0.50;;;19.60;37.60;;;;;;5116126;28;20030;-57
2024/01/31 07:53:47;;;;;;;0.68;0.30;;;19.60;37.70;;;;;;5115367;28;20043;-57
2024/01/31 07:56:13;;;;;;;1.17;0.50;;;19.70;37.70;;;;;;5115070;28;20336;-57
2024/01/31 07:58:39;;;;;;;0.80;0.30;;;19.70;37.70;;;;;;5115990;28;20038;-58
2024/01/31 08:01:05;;;;;;;0.98;0.38;;;19.70;37.80;;;;;;5116198;28;20023;-58
2024/01/31 08:03:31;;;;;;;0.80;0.32;;;19.70;37.90;;;;;;5115126;28;20073;-57
2024/01/31 08:05:59;;;;;;;1.65;0.30;;;19.70;37.90;;;;;;5115058;28;20434;-56
2024/01/31 08:08:25;;;;;;;0.73;0.40;;;19.70;37.90;;;;;;5115193;28;20057;-54
2024/01/31 08:10:52;;;;;;;0.88;0.60;;;19.70;37.90;;;;;;5115283;28;20031;-54
2024/01/31 08:13:18;;;;;;;1.75;0.60;;;19.70;37.90;;;;;;5116412;28;20047;-57
2024/01/31 08:15:44;;;;;;;0.52;0.40;;;19.70;37.90;;;;;;5098284;28;20027;-56
2024/01/31 08:18:09;;;;;;;0.88;0.50;;;19.60;37.80;;;;;;5097028;28;20023;-55
2024/01/31 08:20:35;;;;;;;0.93;0.43;;;19.70;37.90;;;;;;5115328;28;20101;-53
2024/01/31 08:23:01;;;;;;;0.93;0.38;;;19.60;37.80;;;;;;5116399;28;20036;-54
2024/01/31 08:25:28;;;;;;;1.90;0.50;;;19.60;37.90;;;;;;5115644;28;20032;-56
2024/01/31 08:27:53;;;;;;;0.43;0.32;;;19.60;37.90;;;;;;5116172;28;20081;-55
2024/01/31 08:30:21;;;;;;;1.23;0.40;;;19.60;37.90;;;;;;5116028;28;20110;-54
2024/01/31 08:32:47;;;;;;;1.30;0.68;;;19.60;38.00;;;;;;5115711;28;20085;-55
2024/01/31 08:35:13;;;;;;;2.47;0.63;;;19.70;38.00;;;;;;5114572;28;20023;-58
2024/01/31 08:37:39;;;;;;;0.47;0.40;;;19.60;38.00;;;;;;5115419;28;20015;-57
2024/01/31 08:40:08;;;;;;;1.45;0.80;;;19.60;38.00;;;;;;5115557;28;20507;-55
2024/01/31 08:42:36;;;;;;;1.05;0.40;;;19.60;38.00;;;;;;5093714;28;20044;-58
2024/01/31 08:45:02;;;;;;;0.80;0.40;;;19.60;38.10;;;;;;5095637;28;20024;-54
2024/01/31 08:47:28;;;;;;;1.42;0.47;;;19.60;38.10;;;;;;5095157;28;20024;-56
2024/01/31 08:49:54;;;;;;;0.80;0.40;;;19.60;38.30;;;;;;5095440;28;20025;-57
2024/01/31 08:52:19;;;;;;;1.60;0.57;;;19.60;38.40;;;;;;5095624;28;20020;-56
2024/01/31 08:54:45;;;;;;;1.83;0.50;;;19.60;38.40;;;;;;5077522;28;20128;-52
2024/01/31 08:57:11;;;;;;;1.40;0.50;;;19.60;38.40;;;;;;5094446;28;20024;-54
2024/01/31 08:59:37;;;;;;;1.05;0.60;;;19.60;38.30;;;;;;5094950;28;20055;-55
2024/01/31 09:02:03;;;;;;;1.00;0.40;;;19.70;38.30;;;;;;5095078;28;20047;-56
2024/01/31 09:04:29;;;;;;;1.58;0.70;;;19.70;38.30;;;;;;5094255;28;20028;-54
2024/01/31 09:06:55;;;;;;;0.77;0.40;;;19.70;38.20;;;;;;5094182;28;20024;-56
2024/01/31 09:09:20;;;;;;;2.03;0.63;;;19.80;38.20;;;;;;5094932;28;20179;-56
2024/01/31 09:11:46;;;;;;;1.25;0.50;;;19.80;38.20;;;;;;5091542;28;20035;-55
2024/01/31 09:14:12;;;;;;;1.27;0.63;;;19.80;38.10;;;;;;5095144;28;20046;-55
2024/01/31 09:16:38;;;;;;;1.35;0.50;;;19.90;38.70;;;;;;5093778;28;20391;-55
2024/01/31 09:19:04;;;;;;;2.35;0.60;;;19.90;38.10;;;;;;5073828;28;20111;-54
2024/01/31 09:21:30;;;;;;;1.17;0.63;;;19.90;38.00;;;;;;5089631;28;20051;-57
2024/01/31 09:23:57;;;;;;;1.58;0.50;;;19.90;37.90;;;;;;5093502;28;20431;-57
2024/01/31 09:26:23;;;;;;;1.27;0.60;;;20.00;37.90;;;;;;5093203;28;20020;-54
2024/01/31 09:28:50;;;;;;;1.88;0.75;;;20.00;37.90;;;;;;5092691;28;20047;-53
2024/01/31 09:31:22;;;;;;;1.35;0.40;;;20.00;37.80;;;;;;5073189;28;20406;-55
2024/01/31 09:33:49;;;;;;;0.57;0.43;;;20.10;37.80;;;;;;5094543;28;20054;-51
2024/01/31 09:36:15;;;;;;;1.10;0.52;;;20.10;37.70;;;;;;5097612;28;20019;-55
2024/01/31 09:38:41;;;;;;;1.65;0.63;;;20.10;37.70;;;;;;5095018;28;20032;-57
2024/01/31 09:41:07;;;;;;;2.25;0.90;;;20.20;37.70;;;;;;5094379;28;20028;-56
2024/01/31 09:43:33;;;;;;;1.30;0.50;;;20.20;37.60;;;;;;5094626;28;20159;-53
2024/01/31 09:46:03;;;;;;;1.75;0.57;;;20.20;37.50;;;;;;5094206;28;20031;-57
2024/01/31 09:48:30;;;;;;;1.02;0.60;;;20.30;37.50;;;;;;5076650;28;20055;-56
2024/01/31 09:50:58;;;;;;;1.45;0.80;;;20.30;37.50;;;;;;5094384;28;20103;-56
2024/01/31 09:53:24;;;;;;;1.45;0.70;;;20.30;37.40;;;;;;5093354;28;20046;-53
2024/01/31 09:55:55;;;;;;;1.52;0.70;;;20.30;37.40;;;;;;5094165;28;20024;-58
2024/01/31 09:58:21;;;;;;;1.88;0.73;;;20.30;37.30;;;;;;5094322;28;20027;-52
2024/01/31 10:00:51;;;;;;;0.82;0.50;;;20.40;37.30;;;;;;5092035;28;20020;-55
2024/01/31 10:03:16;;;;;;;1.48;0.63;;;20.40;37.20;;;;;;5093968;28;20036;-57
2024/01/31 10:05:42;;;;;;;1.17;0.60;;;20.40;37.20;;;;;;5094392;28;20431;-57
2024/01/31 10:08:09;;;;;;;1.33;0.77;;;20.40;37.20;;;;;;5093808;28;20028;-57
2024/01/31 10:10:41;;;;;;;2.33;0.50;;;20.50;37.20;;;;;;5092996;28;20044;-56
2024/01/31 10:13:09;;;;;;;1.42;0.57;;;20.40;37.10;;;;;;5092537;28;20039;-57
2024/01/31 10:15:35;;;;;;;2.00;0.80;;;20.50;37.20;;;;;;5090435;28;20115;-56
2024/01/31 10:18:03;;;;;;;1.52;0.70;;;20.50;37.10;;;;;;5093778;28;20024;-54
2024/01/31 10:20:30;;;;;;;1.58;0.70;;;20.50;37.10;;;;;;5093892;28;20031;-56
2024/01/31 10:22:58;;;;;;;1.13;0.60;;;20.60;37.20;;;;;;5093109;28;20034;-56
2024/01/31 10:25:25;;;;;;;1.65;0.80;;;20.60;37.10;;;;;;5093390;28;20028;-56
2024/01/31 10:27:52;;;;;;;2.13;0.90;;;20.60;37.10;;;;;;5093272;28;20323;-55
2024/01/31 10:30:18;;;;;;;1.80;0.68;;;20.60;37.10;;;;;;5093499;28;20433;-55
2024/01/31 10:32:48;;;;;;;1.92;0.77;;;20.70;37.10;;;;;;5093365;28;20075;-55
2024/01/31 10:35:15;;;;;;;1.83;0.80;;;20.70;37.00;;;;;;5093498;28;20044;-56
2024/01/31 10:37:41;;;;;;;2.05;0.93;;;20.80;37.10;;;;;;5093918;28;20055;-58
2024/01/31 10:40:12;;;;;;;1.30;0.82;;;20.70;36.90;;;;;;5093505;28;20024;-57
2024/01/31 10:42:38;;;;;;;1.40;0.70;;;20.80;37.00;;;;;;5092486;28;20054;-57
2024/01/31 10:45:05;;;;;;;1.83;0.77;;;20.80;36.90;;;;;;5092689;28;20020;-53
2024/01/31 10:47:32;;;;;;;1.95;1.00;;;20.80;36.90;;;;;;5093219;28;20066;-56
2024/01/31 10:50:00;;;;;;;2.58;1.02;;;20.80;36.90;;;;;;5093184;28;20024;-56
2024/01/31 10:52:31;;;;;;;2.38;1.00;;;20.90;37.60;;;;;;5074609;28;20112;-54
2024/01/31 10:55:00;;;;;;;2.22;1.10;;;20.90;37.00;;;;;;5092625;28;20031;-57
2024/01/31 10:57:27;;;;;;;2.33;1.20;;;20.90;37.00;;;;;;5093016;28;20033;-60
2024/01/31 10:59:55;;;;;;;2.50;1.20;;;20.90;37.00;;;;;;5090398;28;20124;-56
2024/01/31 11:02:31;;;;;;;2.67;1.20;;;20.90;37.00;;;;;;5092387;28;20431;-53
2024/01/31 11:05:00;;;;;;;1.58;0.95;;;20.90;37.00;;;;;;5087983;28;20058;-57
2024/01/31 11:07:26;;;;;;;2.10;1.25;;;20.90;37.10;;;;;;5092928;28;20028;-57
2024/01/31 11:09:53;;;;;;;2.45;1.40;;;21.00;37.10;;;;;;5091769;28;20039;-60
2024/01/31 11:12:19;;;;;;;1.77;1.17;;;20.90;37.10;;;;;;5089937;28;20039;-57
2024/01/31 11:14:46;;;;;;;2.35;1.23;;;21.00;37.20;;;;;;5075195;28;20040;-59
2024/01/31 11:17:23;;;;;;;2.55;1.65;;;21.00;37.20;;;;;;5092925;28;20027;-58
2024/01/31 11:19:52;;;;;;;2.55;1.58;;;21.00;37.30;;;;;;5075144;28;20024;-57
2024/01/31 11:22:19;;;;;;;3.60;1.80;;;21.00;37.30;;;;;;5092717;28;20351;-58
2024/01/31 11:24:49;;;;;;;3.15;1.70;;;21.00;37.30;;;;;;5092793;28;20354;-56
2024/01/31 11:27:16;;;;;;;2.72;1.77;;;21.00;37.40;;;;;;5093193;28;20028;-56
2024/01/31 11:29:45;;;;;;;2.95;1.80;;;21.00;37.50;;;;;;5093048;28;20375;-56
2024/01/31 11:32:12;;;;;;;3.10;2.10;;;21.00;37.50;;;;;;5092437;28;20052;-58
2024/01/31 11:34:39;;;;;;;2.72;1.98;;;21.00;37.50;;;;;;5092626;28;20439;-57
2024/01/31 11:37:05;;;;;;;2.90;2.33;;;21.00;37.50;;;;;;5092285;28;20330;-58
2024/01/31 11:39:31;;;;;;;3.85;2.30;;;21.00;37.60;;;;;;5077415;28;20028;-59
2024/01/31 11:41:57;;;;;;;3.42;2.15;;;21.00;37.60;;;;;;5096259;28;20032;-59
2024/01/31 11:44:23;;;;;;;3.05;1.98;;;21.00;37.70;;;;;;5096382;28;20131;-58
2024/01/31 11:46:50;;;;;;;3.65;2.45;;;21.00;37.70;;;;;;5096353;28;20032;-57
2024/01/31 11:49:17;;;;;;;3.28;2.00;;;21.00;37.70;;;;;;5094051;28;20028;-56
2024/01/31 11:51:42;;;;;;;2.53;1.92;;;21.00;37.80;;;;;;5096728;28;20034;-59
2024/01/31 11:54:13;;;;;;;3.78;1.90;;;21.00;37.80;;;;;;5097531;28;20377;-59
2024/01/31 11:56:39;;;;;;;4.03;2.10;;;21.00;37.90;;;;;;5097495;28;20038;-57
2024/01/31 11:59:05;;;;;;;3.33;1.95;;;21.00;37.90;;;;;;5098347;28;20032;-60
2024/01/31 12:01:32;;;;;;;3.08;1.83;;;21.00;37.90;;;;;;5098101;28;20135;-60
2024/01/31 12:03:57;;;;;;;3.55;1.90;;;21.00;37.90;;;;;;5093076;28;20443;-58
2024/01/31 12:06:23;;;;;;;2.58;1.90;;;21.00;37.90;;;;;;5097596;28;20024;-59
2024/01/31 12:08:50;;;;;;;2.72;2.00;;;21.00;38.00;;;;;;5097565;28;20443;-58
2024/01/31 12:11:16;;;;;;;3.30;2.50;;;21.00;38.60;;;;;;5080060;28;20036;-58
2024/01/31 12:13:45;;;;;;;2.78;1.70;;;21.00;37.90;;;;;;5079449;28;20063;-60
2024/01/31 12:16:11;;;;;;;2.35;1.90;;;21.00;38.00;;;;;;5096810;28;20035;-58
2024/01/31 12:18:37;;;;;;;3.20;1.88;;;21.00;38.00;;;;;;5095067;28;20028;-58
2024/01/31 12:21:04;;;;;;;2.63;1.85;;;21.00;38.10;;;;;;5096634;28;20369;-59
2024/01/31 12:23:31;;;;;;;2.65;1.80;;;21.00;38.00;;;;;;5078730;28;20085;-58
2024/01/31 12:25:58;;;;;;;3.60;1.80;;;21.00;38.00;;;;;;5095371;28;20028;-56
2024/01/31 12:28:24;;;;;;;2.95;1.90;;;20.90;37.90;;;;;;5092693;28;20020;-56
2024/01/31 12:30:51;;;;;;;2.83;1.63;;;20.90;37.90;;;;;;5097041;28;20020;-59
2024/01/31 12:33:17;;;;;;;2.42;1.70;;;21.00;37.90;;;;;;5097310;28;20344;-57
2024/01/31 12:35:44;;;;;;;2.05;1.42;;;20.90;37.80;;;;;;5096580;28;20043;-59
2024/01/31 12:38:10;;;;;;;2.40;1.42;;;20.90;37.70;;;;;;5096753;28;20355;-58
2024/01/31 12:40:37;;;;;;;3.50;1.73;;;20.90;37.60;;;;;;5096977;28;20039;-58
2024/01/31 12:43:04;;;;;;;2.08;1.50;;;20.90;37.50;;;;;;5085534;28;20072;-59